sensor_id;sensor_type;location;lat;lon;timestamp;pressure;altitude;pressure_sealevel;temperature;humidity
40908;BME280;51055;59.436;24.778;2023-04-24T00:00:44;100299.69;;;12.96;56.15
40908;BME280;51055;59.436;24.778;2023-04-24T00:03:12;100299.38;;;12.99;56.29
40908;BME280;51055;59.436;24.778;2023-04-24T00:05:40;100294.22;;;12.97;56.57
40908;BME280;51055;59.436;24.778;2023-04-24T00:08:08;100291.94;;;13.02;56.64
40908;BME280;51055;59.436;24.778;2023-04-24T00:10:36;100295.00;;;13.07;56.06
40908;BME280;51055;59.436;24.778;2023-04-24T00:13:03;100286.75;;;13.11;55.38
40908;BME280;51055;59.436;24.778;2023-04-24T00:15:31;100286.59;;;13.12;55.39
40908;BME280;51055;59.436;24.778;2023-04-24T00:17:59;100282.97;;;13.13;55.34
40908;BME280;51055;59.436;24.778;2023-04-24T00:20:28;100276.50;;;13.16;55.28
40908;BME280;51055;59.436;24.778;2023-04-24T00:23:03;100281.50;;;13.19;55.14
40908;BME280;51055;59.436;24.778;2023-04-24T00:25:30;100276.50;;;13.16;55.24
40908;BME280;51055;59.436;24.778;2023-04-24T00:27:58;100269.03;;;13.19;55.27
40908;BME280;51055;59.436;24.778;2023-04-24T00:30:26;100266.53;;;13.18;55.50
40908;BME280;51055;59.436;24.778;2023-04-24T00:32:53;100262.50;;;13.14;55.55
40908;BME280;51055;59.436;24.778;2023-04-24T00:35:21;100264.19;;;13.15;55.57
40908;BME280;51055;59.436;24.778;2023-04-24T00:37:49;100263.34;;;13.14;55.72
40908;BME280;51055;59.436;24.778;2023-04-24T00:40:17;100258.31;;;13.11;55.90
40908;BME280;51055;59.436;24.778;2023-04-24T00:42:45;100254.13;;;13.09;56.04
40908;BME280;51055;59.436;24.778;2023-04-24T00:45:12;100255.91;;;13.08;56.07
40908;BME280;51055;59.436;24.778;2023-04-24T00:47:41;100253.56;;;13.05;56.29
40908;BME280;51055;59.436;24.778;2023-04-24T00:50:10;100244.56;;;13.06;56.25
40908;BME280;51055;59.436;24.778;2023-04-24T00:52:38;100247.22;;;13.06;56.23
40908;BME280;51055;59.436;24.778;2023-04-24T00:55:08;100239.09;;;13.07;56.22
40908;BME280;51055;59.436;24.778;2023-04-24T00:57:37;100241.22;;;13.04;56.07
40908;BME280;51055;59.436;24.778;2023-04-24T01:00:06;100238.16;;;13.09;56.04
40908;BME280;51055;59.436;24.778;2023-04-24T01:02:40;100234.34;;;13.11;55.96
40908;BME280;51055;59.436;24.778;2023-04-24T01:05:13;100228.00;;;13.12;55.67
40908;BME280;51055;59.436;24.778;2023-04-24T01:07:41;100227.22;;;13.12;55.43
40908;BME280;51055;59.436;24.778;2023-04-24T01:10:14;100225.53;;;13.11;55.44
40908;BME280;51055;59.436;24.778;2023-04-24T01:12:42;100212.88;;;13.13;56.01
40908;BME280;51055;59.436;24.778;2023-04-24T01:15:10;100212.88;;;13.13;56.06
40908;BME280;51055;59.436;24.778;2023-04-24T01:17:38;100223.53;;;13.13;55.83
40908;BME280;51055;59.436;24.778;2023-04-24T01:20:07;100218.22;;;13.13;55.82
40908;BME280;51055;59.436;24.778;2023-04-24T01:22:35;100223.22;;;13.16;55.83
40908;BME280;51055;59.436;24.778;2023-04-24T01:25:04;100215.53;;;13.13;55.75
40908;BME280;51055;59.436;24.778;2023-04-24T01:27:32;100213.72;;;13.13;55.65
40908;BME280;51055;59.436;24.778;2023-04-24T01:30:00;100211.91;;;13.14;55.50
40908;BME280;51055;59.436;24.778;2023-04-24T01:32:29;100217.91;;;13.16;55.45
40908;BME280;51055;59.436;24.778;2023-04-24T01:34:57;100208.63;;;13.20;55.28
40908;BME280;51055;59.436;24.778;2023-04-24T01:37:25;100207.97;;;13.18;55.40
40908;BME280;51055;59.436;24.778;2023-04-24T01:39:56;100204.75;;;13.14;55.43
40908;BME280;51055;59.436;24.778;2023-04-24T01:42:24;100211.91;;;13.14;55.30
40908;BME280;51055;59.436;24.778;2023-04-24T01:44:52;100207.41;;;13.14;55.25
40908;BME280;51055;59.436;24.778;2023-04-24T01:47:21;100211.06;;;13.13;55.31
40908;BME280;51055;59.436;24.778;2023-04-24T01:49:50;100204.75;;;13.14;55.33
40908;BME280;51055;59.436;24.778;2023-04-24T01:52:18;100201.25;;;13.14;55.35
40908;BME280;51055;59.436;24.778;2023-04-24T01:54:46;100201.69;;;13.09;55.50
40908;BME280;51055;59.436;24.778;2023-04-24T01:57:14;100197.22;;;13.10;55.62
40908;BME280;51055;59.436;24.778;2023-04-24T01:59:42;100201.69;;;13.09;55.59
40908;BME280;51055;59.436;24.778;2023-04-24T02:02:10;100195.66;;;13.07;55.44
40908;BME280;51055;59.436;24.778;2023-04-24T02:04:39;100205.47;;;13.06;55.50
40908;BME280;51055;59.436;24.778;2023-04-24T02:07:06;100195.78;;;13.05;55.55
40908;BME280;51055;59.436;24.778;2023-04-24T02:09:34;100189.50;;;13.06;55.53
40908;BME280;51055;59.436;24.778;2023-04-24T02:12:02;100194.97;;;13.05;55.50
40908;BME280;51055;59.436;24.778;2023-04-24T02:14:29;100195.78;;;13.05;55.42
40908;BME280;51055;59.436;24.778;2023-04-24T02:16:57;100190.78;;;13.02;55.52
40908;BME280;51055;59.436;24.778;2023-04-24T02:19:25;100189.78;;;13.03;55.47
40908;BME280;51055;59.436;24.778;2023-04-24T02:21:53;100192.16;;;13.06;55.39
40908;BME280;51055;59.436;24.778;2023-04-24T02:24:20;100197.47;;;13.06;55.37
40908;BME280;51055;59.436;24.778;2023-04-24T02:26:48;100189.50;;;13.06;55.30
40908;BME280;51055;59.436;24.778;2023-04-24T02:29:16;100188.81;;;13.04;55.43
40908;BME280;51055;59.436;24.778;2023-04-24T02:31:44;100189.13;;;13.01;55.41
40908;BME280;51055;59.436;24.778;2023-04-24T02:34:11;100181.44;;;12.98;55.63
40908;BME280;51055;59.436;24.778;2023-04-24T02:36:39;100187.75;;;12.97;55.70
40908;BME280;51055;59.436;24.778;2023-04-24T02:39:06;100186.75;;;12.98;55.94
40908;BME280;51055;59.436;24.778;2023-04-24T02:41:34;100181.88;;;12.94;56.01
40908;BME280;51055;59.436;24.778;2023-04-24T02:44:01;100185.38;;;12.94;56.06
40908;BME280;51055;59.436;24.778;2023-04-24T02:46:29;100175.72;;;12.93;56.08
40908;BME280;51055;59.436;24.778;2023-04-24T02:48:58;100170.84;;;12.89;56.31
40908;BME280;51055;59.436;24.778;2023-04-24T02:51:26;100169.72;;;12.91;56.25
40908;BME280;51055;59.436;24.778;2023-04-24T02:53:54;100171.81;;;12.88;56.46
40908;BME280;51055;59.436;24.778;2023-04-24T02:56:21;100170.16;;;12.87;56.58
40908;BME280;51055;59.436;24.778;2023-04-24T02:58:49;100178.13;;;12.87;56.44
40908;BME280;51055;59.436;24.778;2023-04-24T03:01:17;100178.84;;;12.89;56.54
40908;BME280;51055;59.436;24.778;2023-04-24T03:03:45;100178.97;;;12.87;56.73
40908;BME280;51055;59.436;24.778;2023-04-24T03:06:13;100182.47;;;12.88;56.66
40908;BME280;51055;59.436;24.778;2023-04-24T03:08:41;100186.97;;;12.87;56.66
40908;BME280;51055;59.436;24.778;2023-04-24T03:11:09;100195.09;;;12.86;56.85
40908;BME280;51055;59.436;24.778;2023-04-24T03:13:36;100191.59;;;12.85;56.74
40908;BME280;51055;59.436;24.778;2023-04-24T03:16:04;100209.53;;;12.83;56.66
40908;BME280;51055;59.436;24.778;2023-04-24T03:18:33;100211.88;;;12.86;56.61
40908;BME280;51055;59.436;24.778;2023-04-24T03:21:01;100209.09;;;12.88;56.83
40908;BME280;51055;59.436;24.778;2023-04-24T03:23:28;100216.22;;;12.87;56.66
40908;BME280;51055;59.436;24.778;2023-04-24T03:25:56;100215.09;;;12.90;56.77
40908;BME280;51055;59.436;24.778;2023-04-24T03:28:24;100218.06;;;12.87;56.68
40908;BME280;51055;59.436;24.778;2023-04-24T03:30:52;100218.16;;;12.95;56.45
40908;BME280;51055;59.436;24.778;2023-04-24T03:33:23;100219.56;;;12.89;56.62
40908;BME280;51055;59.436;24.778;2023-04-24T03:35:51;100208.78;;;12.91;56.75
40908;BME280;51055;59.436;24.778;2023-04-24T03:38:18;100211.09;;;13.03;56.67
40908;BME280;51055;59.436;24.778;2023-04-24T03:40:46;100215.00;;;13.09;55.92
40908;BME280;51055;59.436;24.778;2023-04-24T03:43:14;100219.63;;;13.07;56.26
40908;BME280;51055;59.436;24.778;2023-04-24T03:45:42;100216.94;;;13.17;56.36
40908;BME280;51055;59.436;24.778;2023-04-24T03:48:09;100231.09;;;13.17;56.20
40908;BME280;51055;59.436;24.778;2023-04-24T03:50:37;100223.69;;;13.11;56.33
40908;BME280;51055;59.436;24.778;2023-04-24T03:53:05;100220.19;;;13.11;56.46
40908;BME280;51055;59.436;24.778;2023-04-24T03:55:33;100226.59;;;13.18;56.67
40908;BME280;51055;59.436;24.778;2023-04-24T03:58:01;100227.44;;;13.18;56.41
40908;BME280;51055;59.436;24.778;2023-04-24T04:00:29;100234.41;;;13.19;56.37
40908;BME280;51055;59.436;24.778;2023-04-24T04:03:00;100243.19;;;13.29;56.29
40908;BME280;51055;59.436;24.778;2023-04-24T04:05:28;100245.00;;;13.29;56.17
40908;BME280;51055;59.436;24.778;2023-04-24T04:07:55;100241.31;;;13.22;55.84
40908;BME280;51055;59.436;24.778;2023-04-24T04:10:23;100250.09;;;13.22;55.79
40908;BME280;51055;59.436;24.778;2023-04-24T04:12:51;100255.34;;;13.14;55.85
40908;BME280;51055;59.436;24.778;2023-04-24T04:15:18;100255.06;;;13.17;55.71
40908;BME280;51055;59.436;24.778;2023-04-24T04:17:46;100264.19;;;13.15;55.57
40908;BME280;51055;59.436;24.778;2023-04-24T04:20:17;100260.31;;;13.27;55.64
40908;BME280;51055;59.436;24.778;2023-04-24T04:22:45;100247.84;;;13.27;55.27
40908;BME280;51055;59.436;24.778;2023-04-24T04:25:12;100259.28;;;13.37;55.25
40908;BME280;51055;59.436;24.778;2023-04-24T04:27:41;100260.28;;;13.54;54.88
40908;BME280;51055;59.436;24.778;2023-04-24T04:30:09;100258.22;;;13.48;55.08
40908;BME280;51055;59.436;24.778;2023-04-24T04:32:37;100260.66;;;13.41;55.73
40908;BME280;51055;59.436;24.778;2023-04-24T04:35:06;100264.84;;;13.44;55.54
40908;BME280;51055;59.436;24.778;2023-04-24T04:37:34;100266.34;;;13.46;55.33
40908;BME280;51055;59.436;24.778;2023-04-24T04:40:02;100268.41;;;13.35;56.18
40908;BME280;51055;59.436;24.778;2023-04-24T04:42:39;100266.56;;;13.35;56.19
40908;BME280;51055;59.436;24.778;2023-04-24T04:45:08;100266.13;;;13.40;56.19
40908;BME280;51055;59.436;24.778;2023-04-24T04:47:39;100276.66;;;13.32;56.55
40908;BME280;51055;59.436;24.778;2023-04-24T04:50:08;100278.66;;;13.30;56.85
40908;BME280;51055;59.436;24.778;2023-04-24T04:52:36;100279.50;;;13.30;56.80
40908;BME280;51055;59.436;24.778;2023-04-24T04:55:04;100281.63;;;13.27;57.12
40908;BME280;51055;59.436;24.778;2023-04-24T04:57:32;100283.31;;;13.28;57.08
40908;BME280;51055;59.436;24.778;2023-04-24T05:00:00;100284.03;;;13.20;57.55
40908;BME280;51055;59.436;24.778;2023-04-24T05:02:29;100278.47;;;13.14;57.89
40908;BME280;51055;59.436;24.778;2023-04-24T05:04:56;100286.47;;;13.14;58.38
40908;BME280;51055;59.436;24.778;2023-04-24T05:07:24;100287.44;;;13.13;58.35
40908;BME280;51055;59.436;24.778;2023-04-24T05:09:51;100287.44;;;13.13;58.72
40908;BME280;51055;59.436;24.778;2023-04-24T05:12:20;100281.75;;;12.98;59.41
40908;BME280;51055;59.436;24.778;2023-04-24T05:14:48;100305.56;;;12.99;60.17
40908;BME280;51055;59.436;24.778;2023-04-24T05:17:17;100299.53;;;12.97;62.34
40908;BME280;51055;59.436;24.778;2023-04-24T05:19:46;100301.53;;;12.95;63.72
40908;BME280;51055;59.436;24.778;2023-04-24T05:22:16;100301.22;;;12.98;64.22
40908;BME280;51055;59.436;24.778;2023-04-24T05:24:46;100298.56;;;12.98;64.93
40908;BME280;51055;59.436;24.778;2023-04-24T05:27:14;100313.78;;;12.79;66.17
40908;BME280;51055;59.436;24.778;2023-04-24T05:29:42;100313.38;;;12.74;66.90
40908;BME280;51055;59.436;24.778;2023-04-24T05:32:12;100325.00;;;12.73;67.78
40908;BME280;51055;59.436;24.778;2023-04-24T05:34:40;100333.84;;;12.64;69.66
40908;BME280;51055;59.436;24.778;2023-04-24T05:37:08;100325.19;;;12.62;71.22
40908;BME280;51055;59.436;24.778;2023-04-24T05:39:38;100335.41;;;12.57;72.26
40908;BME280;51055;59.436;24.778;2023-04-24T05:42:06;100345.91;;;12.58;73.42
40908;BME280;51055;59.436;24.778;2023-04-24T05:44:34;100332.19;;;12.63;73.83
40908;BME280;51055;59.436;24.778;2023-04-24T05:47:02;100341.97;;;12.62;73.76
40908;BME280;51055;59.436;24.778;2023-04-24T05:49:30;100339.19;;;12.54;75.53
40908;BME280;51055;59.436;24.778;2023-04-24T05:51:57;100340.97;;;12.63;77.02
40908;BME280;51055;59.436;24.778;2023-04-24T05:54:25;100333.47;;;12.49;76.78
40908;BME280;51055;59.436;24.778;2023-04-24T05:56:53;100345.78;;;12.50;76.85
40908;BME280;51055;59.436;24.778;2023-04-24T05:59:23;100336.97;;;12.49;77.08
40908;BME280;51055;59.436;24.778;2023-04-24T06:01:50;100338.94;;;12.38;77.04
40908;BME280;51055;59.436;24.778;2023-04-24T06:04:18;100339.94;;;12.27;78.06
40908;BME280;51055;59.436;24.778;2023-04-24T06:06:46;100351.28;;;12.39;78.13
40908;BME280;51055;59.436;24.778;2023-04-24T06:09:18;100343.94;;;12.50;78.19
40908;BME280;51055;59.436;24.778;2023-04-24T06:11:45;100347.44;;;12.61;77.11
40908;BME280;51055;59.436;24.778;2023-04-24T06:14:13;100345.53;;;12.90;77.02
40908;BME280;51055;59.436;24.778;2023-04-24T06:16:42;100345.50;;;12.99;76.70
40908;BME280;51055;59.436;24.778;2023-04-24T06:19:09;100354.78;;;12.95;73.94
40908;BME280;51055;59.436;24.778;2023-04-24T06:21:38;100357.53;;;13.03;75.53
40908;BME280;51055;59.436;24.778;2023-04-24T06:24:05;100367.94;;;13.34;74.08
40908;BME280;51055;59.436;24.778;2023-04-24T06:26:33;100373.84;;;13.55;73.27
40908;BME280;51055;59.436;24.778;2023-04-24T06:29:00;100372.25;;;13.62;73.01
40908;BME280;51055;59.436;24.778;2023-04-24T06:31:28;100375.72;;;13.72;72.65
40908;BME280;51055;59.436;24.778;2023-04-24T06:33:55;100377.94;;;14.30;71.63
40908;BME280;51055;59.436;24.778;2023-04-24T06:36:23;100376.81;;;14.76;69.08
40908;BME280;51055;59.436;24.778;2023-04-24T06:38:50;100381.94;;;15.29;66.61
40908;BME280;51055;59.436;24.778;2023-04-24T06:41:18;100386.59;;;15.52;65.04
40908;BME280;51055;59.436;24.778;2023-04-24T06:43:48;100382.81;;;15.71;64.04
40908;BME280;51055;59.436;24.778;2023-04-24T06:46:15;100376.66;;;15.79;63.72
40908;BME280;51055;59.436;24.778;2023-04-24T06:48:44;100380.47;;;15.68;63.92
40908;BME280;51055;59.436;24.778;2023-04-24T06:51:12;100384.81;;;15.69;63.64
40908;BME280;51055;59.436;24.778;2023-04-24T06:53:40;100393.03;;;15.76;62.52
40908;BME280;51055;59.436;24.778;2023-04-24T06:56:07;100389.78;;;16.22;62.43
40908;BME280;51055;59.436;24.778;2023-04-24T06:58:35;100393.28;;;16.47;60.87
40908;BME280;51055;59.436;24.778;2023-04-24T07:01:03;100399.31;;;16.33;60.10
40908;BME280;51055;59.436;24.778;2023-04-24T07:03:30;100413.63;;;15.83;62.51
40908;BME280;51055;59.436;24.778;2023-04-24T07:05:58;100411.22;;;15.38;63.08
40908;BME280;51055;59.436;24.778;2023-04-24T07:08:26;100408.56;;;15.04;64.91
40908;BME280;51055;59.436;24.778;2023-04-24T07:10:54;100413.50;;;14.99;65.40
40908;BME280;51055;59.436;24.778;2023-04-24T07:13:22;100418.91;;;15.07;65.46
40908;BME280;51055;59.436;24.778;2023-04-24T07:15:50;100421.38;;;15.35;64.07
40908;BME280;51055;59.436;24.778;2023-04-24T07:18:20;100425.91;;;15.68;64.51
40908;BME280;51055;59.436;24.778;2023-04-24T07:20:50;100431.03;;;15.95;63.05
40908;BME280;51055;59.436;24.778;2023-04-24T07:23:18;100441.63;;;15.71;61.26
40908;BME280;51055;59.436;24.778;2023-04-24T07:25:46;100440.16;;;15.77;61.80
40908;BME280;51055;59.436;24.778;2023-04-24T07:28:14;100440.38;;;15.91;62.06
40908;BME280;51055;59.436;24.778;2023-04-24T07:30:42;100441.19;;;16.58;60.77
40908;BME280;51055;59.436;24.778;2023-04-24T07:33:09;100443.88;;;16.74;58.79
40908;BME280;51055;59.436;24.778;2023-04-24T07:35:40;100446.00;;;17.03;58.18
40908;BME280;51055;59.436;24.778;2023-04-24T07:38:08;100454.16;;;17.34;57.80
40908;BME280;51055;59.436;24.778;2023-04-24T07:40:35;100443.75;;;17.39;56.87
40908;BME280;51055;59.436;24.778;2023-04-24T07:43:03;100452.84;;;17.22;56.10
40908;BME280;51055;59.436;24.778;2023-04-24T07:45:30;100460.28;;;16.71;57.47
40908;BME280;51055;59.436;24.778;2023-04-24T07:48:00;100469.56;;;16.43;58.90
40908;BME280;51055;59.436;24.778;2023-04-24T07:50:28;100469.28;;;16.86;59.28
40908;BME280;51055;59.436;24.778;2023-04-24T07:52:56;100474.22;;;17.62;56.89
40908;BME280;51055;59.436;24.778;2023-04-24T07:55:24;100479.78;;;17.36;56.20
40908;BME280;51055;59.436;24.778;2023-04-24T07:57:54;100468.75;;;17.23;56.31
40908;BME280;51055;59.436;24.778;2023-04-24T08:00:22;100475.00;;;16.91;56.98
40908;BME280;51055;59.436;24.778;2023-04-24T08:02:50;100488.53;;;16.65;57.51
40908;BME280;51055;59.436;24.778;2023-04-24T08:05:18;100490.28;;;16.25;59.15
40908;BME280;51055;59.436;24.778;2023-04-24T08:07:46;100492.56;;;16.03;60.56
40908;BME280;51055;59.436;24.778;2023-04-24T08:10:16;100505.22;;;15.85;61.10
40908;BME280;51055;59.436;24.778;2023-04-24T08:12:44;100503.50;;;15.76;61.12
40908;BME280;51055;59.436;24.778;2023-04-24T08:15:12;100510.69;;;15.76;61.61
40908;BME280;51055;59.436;24.778;2023-04-24T08:17:40;100508.88;;;15.84;62.37
40908;BME280;51055;59.436;24.778;2023-04-24T08:20:09;100510.50;;;15.69;61.42
40908;BME280;51055;59.436;24.778;2023-04-24T08:22:42;100508.72;;;15.52;62.58
40908;BME280;51055;59.436;24.778;2023-04-24T08:25:10;100513.38;;;15.76;62.97
40908;BME280;51055;59.436;24.778;2023-04-24T08:27:38;100512.63;;;15.99;62.47
40908;BME280;51055;59.436;24.778;2023-04-24T08:30:07;100505.13;;;16.11;61.53
40908;BME280;51055;59.436;24.778;2023-04-24T08:32:36;100507.28;;;15.99;61.74
40908;BME280;51055;59.436;24.778;2023-04-24T08:35:04;100507.94;;;15.93;61.13
40908;BME280;51055;59.436;24.778;2023-04-24T08:37:32;100510.16;;;16.14;60.98
40908;BME280;51055;59.436;24.778;2023-04-24T08:40:06;100511.22;;;16.29;60.15
40908;BME280;51055;59.436;24.778;2023-04-24T08:42:39;100503.72;;;16.41;60.12
40908;BME280;51055;59.436;24.778;2023-04-24T08:45:07;100516.44;;;16.39;59.41
40908;BME280;51055;59.436;24.778;2023-04-24T08:47:38;100503.34;;;16.28;59.15
40908;BME280;51055;59.436;24.778;2023-04-24T08:50:07;100511.56;;;16.26;59.44
40908;BME280;51055;59.436;24.778;2023-04-24T08:52:36;100527.56;;;16.18;59.39
40908;BME280;51055;59.436;24.778;2023-04-24T08:55:05;100524.44;;;16.23;59.23
40908;BME280;51055;59.436;24.778;2023-04-24T08:57:33;100526.72;;;16.17;59.47
40908;BME280;51055;59.436;24.778;2023-04-24T09:00:01;100522.03;;;16.11;59.19
40908;BME280;51055;59.436;24.778;2023-04-24T09:02:29;100523.69;;;16.04;59.78
40908;BME280;51055;59.436;24.778;2023-04-24T09:04:58;100531.69;;;15.96;61.19
40908;BME280;51055;59.436;24.778;2023-04-24T09:07:27;100522.56;;;15.81;61.84
40908;BME280;51055;59.436;24.778;2023-04-24T09:09:56;100509.97;;;15.66;61.67
40908;BME280;51055;59.436;24.778;2023-04-24T09:12:24;100528.94;;;15.80;60.72
40908;BME280;51055;59.436;24.778;2023-04-24T09:14:52;100523.81;;;15.61;55.52
40908;BME280;51055;59.436;24.778;2023-04-24T09:17:21;100537.88;;;15.20;56.21
40908;BME280;51055;59.436;24.778;2023-04-24T09:19:49;100530.50;;;15.13;55.80
40908;BME280;51055;59.436;24.778;2023-04-24T09:22:17;100541.19;;;15.13;55.47
40908;BME280;51055;59.436;24.778;2023-04-24T09:24:45;100533.66;;;14.91;54.91
40908;BME280;51055;59.436;24.778;2023-04-24T09:27:12;100540.75;;;14.83;56.32
40908;BME280;51055;59.436;24.778;2023-04-24T09:29:55;100542.66;;;14.90;54.90
40908;BME280;51055;59.436;24.778;2023-04-24T09:32:24;100544.72;;;14.79;55.07
40908;BME280;51055;59.436;24.778;2023-04-24T09:35:07;100554.25;;;14.81;55.12
40908;BME280;51055;59.436;24.778;2023-04-24T09:37:37;100546.06;;;15.00;54.83
40908;BME280;51055;59.436;24.778;2023-04-24T09:40:12;100551.66;;;15.07;54.01
40908;BME280;51055;59.436;24.778;2023-04-24T09:42:55;100555.38;;;14.96;53.21
40908;BME280;51055;59.436;24.778;2023-04-24T09:45:37;100565.94;;;14.98;54.22
40908;BME280;51055;59.436;24.778;2023-04-24T09:48:09;100562.41;;;14.80;53.91
40908;BME280;51055;59.436;24.778;2023-04-24T09:50:38;100573.94;;;14.63;54.49
40908;BME280;51055;59.436;24.778;2023-04-24T09:53:06;100576.06;;;14.59;53.89
40908;BME280;51055;59.436;24.778;2023-04-24T09:55:44;100580.84;;;14.28;54.56
40908;BME280;51055;59.436;24.778;2023-04-24T09:58:13;100589.22;;;14.16;54.13
40908;BME280;51055;59.436;24.778;2023-04-24T10:00:41;100599.66;;;13.99;54.94
40908;BME280;51055;59.436;24.778;2023-04-24T10:03:08;100603.84;;;14.02;55.65
40908;BME280;51055;59.436;24.778;2023-04-24T10:05:37;100604.50;;;14.14;55.59
40908;BME280;51055;59.436;24.778;2023-04-24T10:08:07;100609.03;;;14.13;55.35
40908;BME280;51055;59.436;24.778;2023-04-24T10:10:39;100617.56;;;14.07;55.51
40908;BME280;51055;59.436;24.778;2023-04-24T10:13:12;100616.38;;;13.92;55.97
40908;BME280;51055;59.436;24.778;2023-04-24T10:15:41;100622.84;;;13.89;55.29
40908;BME280;51055;59.436;24.778;2023-04-24T10:18:10;100628.25;;;13.70;55.67
40908;BME280;51055;59.436;24.778;2023-04-24T10:20:39;100631.66;;;13.43;56.85
40908;BME280;51055;59.436;24.778;2023-04-24T10:23:07;100627.75;;;13.28;58.19
40908;BME280;51055;59.436;24.778;2023-04-24T10:25:36;100638.38;;;13.47;57.37
40908;BME280;51055;59.436;24.778;2023-04-24T10:28:07;100637.00;;;13.34;57.22
40908;BME280;51055;59.436;24.778;2023-04-24T10:30:37;100643.88;;;13.27;56.90
40908;BME280;51055;59.436;24.778;2023-04-24T10:33:07;100652.81;;;13.35;56.33
40908;BME280;51055;59.436;24.778;2023-04-24T10:35:39;100643.59;;;13.30;55.71
40908;BME280;51055;59.436;24.778;2023-04-24T10:38:11;100645.56;;;13.28;56.10
40908;BME280;51055;59.436;24.778;2023-04-24T10:40:40;100641.06;;;13.38;55.57
40908;BME280;51055;59.436;24.778;2023-04-24T10:43:08;100645.09;;;13.42;56.66
40908;BME280;51055;59.436;24.778;2023-04-24T10:45:38;100643.72;;;13.47;55.67
40908;BME280;51055;59.436;24.778;2023-04-24T10:48:08;100638.81;;;13.43;56.30
40908;BME280;51055;59.436;24.778;2023-04-24T10:50:50;100640.78;;;13.50;55.90
40908;BME280;51055;59.436;24.778;2023-04-24T10:53:20;100644.28;;;13.51;55.38
40908;BME280;51055;59.436;24.778;2023-04-24T10:56:07;100650.31;;;13.43;55.61
40908;BME280;51055;59.436;24.778;2023-04-24T10:58:42;100647.78;;;13.23;56.56
40908;BME280;51055;59.436;24.778;2023-04-24T11:01:29;100660.00;;;13.35;56.33
40908;BME280;51055;59.436;24.778;2023-04-24T11:03:59;100653.53;;;13.37;56.70
40908;BME280;51055;59.436;24.778;2023-04-24T11:06:32;100661.53;;;13.47;56.31
40908;BME280;51055;59.436;24.778;2023-04-24T11:09:04;100658.28;;;13.53;55.99
40908;BME280;51055;59.436;24.778;2023-04-24T11:11:36;100659.25;;;13.52;55.62
40908;BME280;51055;59.436;24.778;2023-04-24T11:14:06;100661.38;;;13.39;55.88
40908;BME280;51055;59.436;24.778;2023-04-24T11:16:39;100663.75;;;13.42;55.13
40908;BME280;51055;59.436;24.778;2023-04-24T11:27:21;100659.28;;;13.23;55.89
40908;BME280;51055;59.436;24.778;2023-04-24T11:30:02;100666.72;;;13.10;56.26
40908;BME280;51055;59.436;24.778;2023-04-24T11:32:36;100667.97;;;13.16;55.53
40908;BME280;51055;59.436;24.778;2023-04-24T11:35:22;100667.34;;;13.02;55.89
40908;BME280;51055;59.436;24.778;2023-04-24T11:37:55;100673.53;;;13.03;55.79
40908;BME280;51055;59.436;24.778;2023-04-24T11:40:25;100667.53;;;13.01;55.98
40908;BME280;51055;59.436;24.778;2023-04-24T11:42:54;100675.22;;;12.94;56.25
40908;BME280;51055;59.436;24.778;2023-04-24T11:45:27;100673.09;;;12.88;56.31
40908;BME280;51055;59.436;24.778;2023-04-24T11:47:56;100674.63;;;12.81;55.78
40908;BME280;51055;59.436;24.778;2023-04-24T11:50:26;100680.91;;;12.71;56.41
40908;BME280;51055;59.436;24.778;2023-04-24T11:52:58;100676.97;;;12.65;56.50
40908;BME280;51055;59.436;24.778;2023-04-24T11:55:28;100685.22;;;12.52;57.07
40908;BME280;51055;59.436;24.778;2023-04-24T11:57:57;100685.91;;;12.54;57.08
40908;BME280;51055;59.436;24.778;2023-04-24T12:00:31;100687.50;;;12.27;58.29
40908;BME280;51055;59.436;24.778;2023-04-24T12:05:34;100693.78;;;12.26;58.38
40908;BME280;51055;59.436;24.778;2023-04-24T12:08:02;100686.75;;;12.25;58.29
40908;BME280;51055;59.436;24.778;2023-04-24T12:10:31;100693.19;;;12.22;57.59
40908;BME280;51055;59.436;24.778;2023-04-24T12:12:59;100689.66;;;12.12;58.03
40908;BME280;51055;59.436;24.778;2023-04-24T12:15:28;100685.13;;;12.03;58.64
40908;BME280;51055;59.436;24.778;2023-04-24T12:17:56;100691.19;;;12.15;58.83
40908;BME280;51055;59.436;24.778;2023-04-24T12:20:29;100698.06;;;12.17;58.75
40908;BME280;51055;59.436;24.778;2023-04-24T12:22:59;100695.03;;;12.01;58.93
40908;BME280;51055;59.436;24.778;2023-04-24T12:25:29;100689.34;;;12.06;59.07
40908;BME280;51055;59.436;24.778;2023-04-24T12:30:38;100700.81;;;12.06;58.74
40908;BME280;51055;59.436;24.778;2023-04-24T12:33:07;100703.16;;;11.99;58.77
40908;BME280;51055;59.436;24.778;2023-04-24T12:35:35;100696.81;;;11.91;59.62
40908;BME280;51055;59.436;24.778;2023-04-24T12:38:10;100698.63;;;11.90;59.99
40908;BME280;51055;59.436;24.778;2023-04-24T12:40:40;100695.56;;;11.95;59.43
40908;BME280;51055;59.436;24.778;2023-04-24T12:43:16;100690.41;;;11.93;59.07
40908;BME280;51055;59.436;24.778;2023-04-24T12:45:45;100692.59;;;11.88;59.82
40908;BME280;51055;59.436;24.778;2023-04-24T12:48:13;100685.31;;;11.70;60.08
40908;BME280;51055;59.436;24.778;2023-04-24T12:50:43;100704.16;;;11.67;60.51
40908;BME280;51055;59.436;24.778;2023-04-24T12:53:14;100699.81;;;11.66;60.87
40908;BME280;51055;59.436;24.778;2023-04-24T12:55:43;100702.22;;;11.69;60.50
40908;BME280;51055;59.436;24.778;2023-04-24T12:58:12;100697.09;;;11.56;61.41
40908;BME280;51055;59.436;24.778;2023-04-24T13:00:40;100695.97;;;11.59;61.40
40908;BME280;51055;59.436;24.778;2023-04-24T13:03:11;100704.63;;;11.51;61.71